Time;durP1;ratioP1;P1;durP2;ratioP2;P2;SDS_P1;SDS_P2;PMS_P1;PMS_P2;Temp;Humidity;BMP_temperature;BMP_pressure;BME280_temperature;BME280_humidity;BME280_pressure;Samples;Min_cycle;Max_cycle;Signal;HPM_P1;HPM_P2
2022/07/10 00:01:05;;;;;;;6.78;0.95;;;14.00;99.90;;;;;;5026920;28;20083;-81
2022/07/10 00:03:31;;;;;;;7.75;1.35;;;14.00;99.90;;;;;;5027076;28;20045;-81
2022/07/10 00:05:57;;;;;;;8.65;0.88;;;13.90;99.90;;;;;;5026410;28;20076;-82
2022/07/10 00:08:22;;;;;;;8.55;0.80;;;13.90;99.90;;;;;;5030018;28;20083;-82
2022/07/10 00:10:48;;;;;;;7.75;1.50;;;13.80;99.90;;;;;;5025366;28;20045;-82
2022/07/10 00:13:13;;;;;;;7.72;1.55;;;13.80;99.90;;;;;;5031190;28;20038;-82
2022/07/10 00:15:39;;;;;;;6.68;0.70;;;13.80;99.90;;;;;;5028969;28;20140;-82
2022/07/10 00:18:05;;;;;;;6.72;1.02;;;13.80;99.90;;;;;;5028155;28;20045;-82
2022/07/10 00:20:30;;;;;;;6.78;0.93;;;13.70;99.90;;;;;;5026292;28;20176;-82
2022/07/10 00:22:56;;;;;;;8.43;1.00;;;13.80;99.90;;;;;;5029409;28;20083;-82
2022/07/10 00:25:21;;;;;;;8.75;0.90;;;13.80;99.90;;;;;;5027624;28;20055;-82
2022/07/10 00:27:47;;;;;;;7.68;1.42;;;13.80;99.90;;;;;;5028620;28;20055;-82
2022/07/10 00:30:13;;;;;;;9.00;1.17;;;13.80;99.90;;;;;;5028188;28;20040;-82
2022/07/10 00:32:39;;;;;;;6.85;0.80;;;13.70;99.90;;;;;;5028169;28;20049;-82
2022/07/10 00:35:06;;;;;;;7.75;1.00;;;13.70;99.90;;;;;;5028741;28;20056;-83
2022/07/10 00:37:32;;;;;;;5.70;1.00;;;13.80;99.90;;;;;;5028536;28;20071;-82
2022/07/10 00:39:57;;;;;;;8.88;1.83;;;13.70;99.90;;;;;;5027028;28;20037;-82
2022/07/10 00:42:23;;;;;;;8.32;0.90;;;13.70;99.90;;;;;;5029657;28;20458;-82
2022/07/10 00:44:49;;;;;;;8.50;1.23;;;13.70;99.90;;;;;;5028306;28;20041;-82
2022/07/10 00:47:17;;;;;;;6.80;1.13;;;13.70;99.90;;;;;;5028924;28;20037;-81
2022/07/10 00:49:43;;;;;;;6.90;0.85;;;13.70;99.90;;;;;;5028208;28;20053;-82
2022/07/10 00:52:12;;;;;;;8.95;1.13;;;13.80;99.90;;;;;;5028964;28;20053;-82
2022/07/10 00:54:39;;;;;;;6.25;1.30;;;13.80;99.90;;;;;;5027815;28;20806;-82
2022/07/10 00:57:06;;;;;;;6.70;1.70;;;13.80;99.90;;;;;;5029047;28;20492;-82
2022/07/10 00:59:32;;;;;;;9.32;1.30;;;13.90;99.90;;;;;;5044323;28;20056;-83
2022/07/10 01:01:57;;;;;;;5.18;0.85;;;13.80;99.90;;;;;;5032477;28;20071;-82
2022/07/10 01:04:24;;;;;;;11.00;1.48;;;13.80;99.90;;;;;;5034014;28;20030;-82
2022/07/10 01:06:50;;;;;;;5.78;0.90;;;13.80;99.90;;;;;;5031211;28;20045;-82
2022/07/10 01:09:16;;;;;;;10.20;1.88;;;13.70;99.90;;;;;;5031292;28;20049;-82
2022/07/10 01:11:41;;;;;;;7.93;1.20;;;13.70;99.90;;;;;;5034348;28;20574;-82
2022/07/10 01:14:07;;;;;;;8.40;1.15;;;13.60;99.90;;;;;;5030685;28;20100;-82
2022/07/10 01:16:34;;;;;;;5.30;0.68;;;13.60;99.90;;;;;;5029094;28;20045;-82
2022/07/10 01:19:00;;;;;;;4.50;1.02;;;13.70;99.90;;;;;;5029997;28;20034;-82
2022/07/10 01:21:33;;;;;;;7.05;0.93;;;13.60;99.90;;;;;;5035628;28;20033;-82
2022/07/10 01:24:00;;;;;;;8.10;1.58;;;13.60;99.90;;;;;;5030894;28;20049;-81
2022/07/10 01:26:26;;;;;;;7.88;1.13;;;13.60;99.90;;;;;;5028764;28;20507;-81
2022/07/10 01:28:53;;;;;;;5.47;1.02;;;13.60;99.90;;;;;;5025508;28;20065;-81
2022/07/10 01:31:26;;;;;;;6.22;0.70;;;13.60;99.90;;;;;;5026810;28;20069;-82
2022/07/10 01:33:53;;;;;;;7.40;1.42;;;13.60;99.90;;;;;;5028434;28;20428;-82
2022/07/10 01:36:20;;;;;;;5.70;1.08;;;13.60;99.90;;;;;;5026691;28;20099;-82
2022/07/10 01:38:45;;;;;;;9.15;1.35;;;13.50;99.90;;;;;;5027574;28;20050;-82
2022/07/10 01:41:11;;;;;;;9.15;1.40;;;13.50;99.90;;;;;;5028245;28;20108;-82
2022/07/10 01:43:37;;;;;;;7.10;0.95;;;13.50;99.90;;;;;;5028297;28;20045;-82
2022/07/10 01:46:04;;;;;;;6.57;1.60;;;13.40;99.90;;;;;;5024394;28;20069;-83
2022/07/10 01:48:30;;;;;;;8.05;1.27;;;13.40;99.90;;;;;;5028762;28;20033;-81
2022/07/10 01:50:56;;;;;;;8.88;1.10;;;13.40;99.90;;;;;;5023169;28;20935;-82
2022/07/10 01:53:22;;;;;;;4.85;0.80;;;13.30;99.90;;;;;;5010356;28;20033;-82
2022/07/10 01:55:47;;;;;;;7.50;1.20;;;13.30;99.90;;;;;;5026940;28;20194;-82
2022/07/10 01:58:13;;;;;;;9.02;1.38;;;13.30;99.90;;;;;;5027110;28;20038;-83
2022/07/10 02:00:38;;;;;;;6.85;1.10;;;13.30;99.90;;;;;;5027678;28;20041;-82
2022/07/10 02:05:48;;;;;;;8.68;1.95;;;13.20;99.90;;;;;;5026790;28;20118;-81
2022/07/10 02:08:13;;;;;;;6.35;1.17;;;13.20;99.90;;;;;;5026020;28;20045;-82
2022/07/10 02:10:39;;;;;;;7.00;0.93;;;13.10;99.90;;;;;;5027758;28;20037;-82
2022/07/10 02:13:04;;;;;;;6.43;1.52;;;13.10;99.90;;;;;;5028696;28;20091;-81
2022/07/10 02:15:30;;;;;;;8.40;1.65;;;13.10;99.90;;;;;;5023864;28;20095;-81
2022/07/10 02:17:56;;;;;;;10.52;1.17;;;13.10;99.90;;;;;;5023744;28;20125;-81
2022/07/10 02:20:21;;;;;;;9.32;1.23;;;13.00;99.90;;;;;;5025931;28;20048;-82
2022/07/10 02:22:47;;;;;;;7.22;1.10;;;13.00;99.90;;;;;;5026983;28;20068;-81
2022/07/10 02:25:12;;;;;;;6.22;1.00;;;13.00;99.90;;;;;;5021610;28;20037;-82
2022/07/10 02:27:38;;;;;;;11.70;1.25;;;13.00;99.90;;;;;;5025687;28;20052;-82
2022/07/10 02:30:05;;;;;;;8.48;1.70;;;12.90;99.90;;;;;;5023932;28;20121;-82
2022/07/10 02:32:30;;;;;;;14.27;1.83;;;12.90;99.90;;;;;;5023824;28;20069;-81
2022/07/10 02:34:56;;;;;;;8.88;1.00;;;12.90;99.90;;;;;;5025245;28;20079;-81
2022/07/10 02:37:21;;;;;;;7.57;1.00;;;12.90;99.90;;;;;;5027141;28;20033;-81
2022/07/10 02:39:47;;;;;;;9.25;1.55;;;12.90;99.90;;;;;;5027876;28;20041;-82
2022/07/10 02:42:12;;;;;;;8.45;1.45;;;12.90;99.90;;;;;;5026054;28;20045;-81
2022/07/10 02:44:38;;;;;;;7.57;1.10;;;12.80;99.90;;;;;;5022700;28;20063;-82
2022/07/10 02:47:03;;;;;;;14.02;1.75;;;12.90;99.90;;;;;;5026822;28;20049;-81
2022/07/10 02:49:29;;;;;;;5.90;1.00;;;12.80;99.90;;;;;;5025550;28;20071;-82
2022/07/10 02:51:55;;;;;;;5.80;0.98;;;12.80;99.90;;;;;;5009147;28;20077;-81
2022/07/10 02:54:20;;;;;;;9.60;0.90;;;12.80;99.90;;;;;;5022317;28;20041;-81
2022/07/10 02:56:46;;;;;;;4.68;0.70;;;12.80;99.90;;;;;;5026435;28;20036;-81
2022/07/10 02:59:11;;;;;;;9.73;1.83;;;12.80;99.90;;;;;;5023738;28;20042;-81
2022/07/10 03:01:37;;;;;;;8.80;1.60;;;12.80;99.90;;;;;;5025515;28;20089;-81
2022/07/10 03:04:02;;;;;;;6.47;1.30;;;12.70;99.90;;;;;;5027172;28;20046;-82
2022/07/10 03:06:28;;;;;;;9.48;1.25;;;12.80;99.90;;;;;;5023013;28;20046;-82
2022/07/10 03:08:54;;;;;;;7.78;1.15;;;12.80;99.90;;;;;;5024031;28;20143;-81
2022/07/10 03:11:19;;;;;;;8.05;1.08;;;12.80;99.90;;;;;;5023616;28;20037;-81
2022/07/10 03:13:45;;;;;;;6.18;1.92;;;12.80;99.90;;;;;;5026002;28;20467;-82
2022/07/10 03:16:10;;;;;;;4.88;0.70;;;12.80;99.90;;;;;;5022131;28;20540;-82
2022/07/10 03:18:36;;;;;;;5.68;1.13;;;12.80;99.90;;;;;;5024002;28;20657;-82
2022/07/10 03:21:01;;;;;;;7.30;0.70;;;12.80;99.90;;;;;;5026012;28;20052;-82
2022/07/10 03:23:27;;;;;;;7.30;0.93;;;12.90;99.90;;;;;;5030717;28;20428;-82
2022/07/10 03:25:52;;;;;;;11.13;1.88;;;12.90;99.90;;;;;;5028507;28;20061;-81
2022/07/10 03:28:18;;;;;;;6.85;1.10;;;13.00;99.90;;;;;;5027428;28;20042;-82
2022/07/10 03:30:44;;;;;;;6.25;1.00;;;13.00;99.90;;;;;;5026801;28;20046;-82
2022/07/10 03:33:09;;;;;;;10.48;0.95;;;13.00;99.90;;;;;;5029673;28;20037;-82
2022/07/10 03:35:35;;;;;;;7.47;1.23;;;13.10;99.90;;;;;;5027439;28;20504;-81
2022/07/10 03:38:00;;;;;;;8.70;0.60;;;13.10;99.90;;;;;;5024913;28;20040;-82
2022/07/10 03:40:26;;;;;;;9.90;1.65;;;13.20;99.90;;;;;;5028869;28;20037;-82
2022/07/10 03:42:52;;;;;;;9.05;0.82;;;13.20;99.90;;;;;;5029434;28;20049;-82
2022/07/10 03:45:18;;;;;;;7.82;1.05;;;13.20;99.90;;;;;;5026073;28;20102;-82
2022/07/10 03:47:43;;;;;;;14.27;1.23;;;13.20;99.90;;;;;;5025799;28;20439;-81
2022/07/10 03:50:09;;;;;;;5.57;0.90;;;13.30;99.90;;;;;;5026622;28;20030;-81
2022/07/10 03:52:35;;;;;;;6.68;0.85;;;13.30;99.90;;;;;;5027317;28;20056;-83
2022/07/10 03:55:01;;;;;;;8.95;1.17;;;13.30;99.90;;;;;;5029315;28;20666;-82
2022/07/10 04:00:11;;;;;;;5.05;1.02;;;13.40;99.90;;;;;;5023089;28;20084;-82
2022/07/10 04:02:37;;;;;;;5.38;0.93;;;13.40;99.90;;;;;;5010163;28;20583;-82
2022/07/10 04:05:06;;;;;;;7.07;1.00;;;13.40;99.90;;;;;;5029666;28;20041;-81
2022/07/10 04:07:31;;;;;;;6.78;1.08;;;13.50;99.90;;;;;;5028843;28;20041;-81
2022/07/10 04:09:57;;;;;;;9.95;1.00;;;13.50;99.90;;;;;;5026551;28;20041;-81
2022/07/10 04:12:23;;;;;;;5.95;1.00;;;13.50;99.90;;;;;;5027904;28;20052;-82
2022/07/10 04:14:51;;;;;;;6.50;1.35;;;13.50;99.90;;;;;;5026403;28;20049;-82
2022/07/10 04:17:17;;;;;;;8.02;0.90;;;13.50;99.90;;;;;;5011414;28;20033;-82
2022/07/10 04:19:43;;;;;;;5.65;0.70;;;13.50;99.90;;;;;;5021286;28;20041;-81
2022/07/10 04:22:08;;;;;;;3.95;0.43;;;13.50;99.90;;;;;;5028012;28;20059;-81
2022/07/10 04:24:34;;;;;;;7.63;1.48;;;13.60;99.90;;;;;;5028970;28;20076;-82
2022/07/10 04:27:00;;;;;;;7.45;0.80;;;13.50;99.90;;;;;;5026917;28;20045;-82
2022/07/10 04:29:26;;;;;;;7.55;0.80;;;13.60;99.90;;;;;;5026032;28;20480;-82
2022/07/10 04:31:51;;;;;;;5.32;1.02;;;13.60;99.90;;;;;;5023141;28;20049;-82
2022/07/10 04:34:17;;;;;;;7.55;0.55;;;13.60;99.90;;;;;;5026870;28;20144;-81
2022/07/10 04:36:43;;;;;;;5.90;1.10;;;13.60;99.90;;;;;;5025503;28;20029;-82
2022/07/10 04:39:08;;;;;;;10.95;1.67;;;13.60;99.90;;;;;;5026878;28;20037;-82
2022/07/10 04:41:34;;;;;;;6.28;0.98;;;13.70;99.90;;;;;;5024098;28;20041;-82
2022/07/10 04:44:00;;;;;;;5.95;1.00;;;13.80;99.90;;;;;;5028439;28;20798;-83
2022/07/10 04:46:25;;;;;;;7.25;1.17;;;13.80;99.90;;;;;;5028132;28;20037;-82
2022/07/10 04:48:51;;;;;;;11.40;1.05;;;13.90;99.90;;;;;;5026522;28;20300;-83
2022/07/10 04:51:17;;;;;;;5.40;0.70;;;14.00;99.90;;;;;;5026055;28;20041;-82
2022/07/10 04:53:43;;;;;;;8.60;1.17;;;14.00;99.90;;;;;;5028329;28;20095;-83
2022/07/10 04:56:08;;;;;;;6.97;1.40;;;14.10;99.90;;;;;;5028969;28;20378;-82
2022/07/10 04:58:34;;;;;;;8.93;1.52;;;14.10;99.90;;;;;;5026743;28;20049;-83
2022/07/10 05:01:00;;;;;;;4.80;0.88;;;14.20;99.90;;;;;;5027674;28;20037;-82
2022/07/10 05:03:25;;;;;;;7.93;1.05;;;14.20;99.90;;;;;;5025641;28;20055;-82
2022/07/10 05:05:51;;;;;;;9.15;1.33;;;14.30;99.90;;;;;;5027916;28;20061;-82
2022/07/10 05:08:16;;;;;;;7.10;1.42;;;14.30;99.90;;;;;;5025518;28;20091;-81
2022/07/10 05:10:42;;;;;;;10.38;2.20;;;14.30;99.90;;;;;;5024352;28;20100;-83
2022/07/10 05:13:07;;;;;;;5.45;0.82;;;14.30;99.90;;;;;;5006523;28;20096;-82
2022/07/10 05:15:33;;;;;;;9.00;1.33;;;14.40;99.90;;;;;;5024784;28;20766;-82
2022/07/10 05:17:58;;;;;;;11.45;1.23;;;14.40;99.90;;;;;;5025456;28;20052;-82
2022/07/10 05:20:24;;;;;;;13.27;2.03;;;14.50;99.90;;;;;;5024944;28;20069;-82
2022/07/10 05:22:49;;;;;;;10.65;1.50;;;14.50;99.90;;;;;;5024199;28;20080;-82
2022/07/10 05:25:15;;;;;;;8.55;1.27;;;14.60;99.90;;;;;;5025589;28;20076;-82
2022/07/10 05:27:40;;;;;;;6.53;1.38;;;14.60;99.90;;;;;;5028670;28;20100;-82
2022/07/10 05:30:06;;;;;;;10.27;1.48;;;14.60;99.90;;;;;;5028019;28;20568;-82
2022/07/10 05:32:32;;;;;;;10.63;2.22;;;14.60;99.90;;;;;;5030645;28;20049;-83
2022/07/10 05:35:01;;;;;;;9.18;1.48;;;14.70;99.90;;;;;;5028319;28;20127;-82
2022/07/10 05:37:26;;;;;;;9.55;1.50;;;14.70;99.90;;;;;;5029012;28;20128;-83
2022/07/10 05:39:52;;;;;;;10.85;2.42;;;14.70;99.90;;;;;;5031936;28;20061;-82
2022/07/10 05:42:17;;;;;;;8.73;1.48;;;14.80;99.90;;;;;;5029573;28;20045;-82
2022/07/10 05:44:43;;;;;;;6.63;1.10;;;14.80;99.90;;;;;;5021218;28;20049;-82
2022/07/10 05:47:08;;;;;;;8.00;1.52;;;14.80;99.90;;;;;;5042451;28;20048;-82
2022/07/10 05:49:34;;;;;;;7.05;1.13;;;14.90;99.90;;;;;;5024355;28;20048;-82
2022/07/10 05:51:59;;;;;;;10.90;1.75;;;14.90;99.90;;;;;;5023713;28;20090;-82
2022/07/10 05:54:28;;;;;;;6.97;1.00;;;14.90;99.90;;;;;;5023029;28;20115;-83
2022/07/10 05:56:54;;;;;;;10.07;1.30;;;15.00;99.90;;;;;;5020350;28;20045;-83
2022/07/10 05:59:19;;;;;;;11.27;1.65;;;15.10;99.90;;;;;;5025076;28;20044;-83
2022/07/10 06:01:45;;;;;;;10.30;1.40;;;15.40;99.90;;;;;;5006027;28;20415;-84
2022/07/10 06:04:14;;;;;;;8.65;1.90;;;15.20;99.90;;;;;;5005713;28;20033;-84
2022/07/10 06:06:46;;;;;;;12.50;1.58;;;15.30;99.90;;;;;;5026683;28;20519;-84
2022/07/10 06:09:12;;;;;;;10.70;1.65;;;15.30;99.90;;;;;;5025533;28;20112;-84
2022/07/10 06:11:37;;;;;;;6.05;1.27;;;15.50;99.90;;;;;;5024217;28;20124;-84
2022/07/10 06:14:03;;;;;;;7.70;2.10;;;15.40;99.90;;;;;;5022296;28;20049;-84
2022/07/10 06:16:28;;;;;;;11.00;1.60;;;15.40;99.90;;;;;;5026739;28;20057;-83
2022/07/10 06:18:54;;;;;;;6.97;1.80;;;15.50;99.90;;;;;;5021488;28;20048;-84
2022/07/10 06:21:21;;;;;;;7.18;1.08;;;15.50;99.90;;;;;;5025294;28;20037;-83
2022/07/10 06:23:47;;;;;;;12.05;2.25;;;15.60;99.90;;;;;;5025433;28;20381;-83
2022/07/10 06:26:13;;;;;;;9.63;1.55;;;15.70;99.90;;;;;;5006905;28;20049;-84
2022/07/10 06:28:41;;;;;;;12.07;1.88;;;15.70;99.90;;;;;;5009803;28;20037;-84
2022/07/10 06:31:07;;;;;;;10.38;1.60;;;15.70;99.90;;;;;;5024937;28;20430;-83
2022/07/10 06:33:35;;;;;;;8.32;1.50;;;15.70;99.90;;;;;;5018698;28;20071;-84
2022/07/10 06:36:00;;;;;;;6.85;1.95;;;15.70;99.90;;;;;;5023794;28;20087;-83
2022/07/10 06:38:26;;;;;;;5.60;1.25;;;15.70;99.90;;;;;;5023805;28;20033;-84
2022/07/10 06:40:52;;;;;;;5.22;0.80;;;15.70;99.90;;;;;;5022503;28;20069;-84
2022/07/10 06:43:17;;;;;;;7.80;0.70;;;15.70;99.90;;;;;;5022984;28;20731;-84
2022/07/10 06:45:44;;;;;;;7.43;1.10;;;15.70;99.90;;;;;;5023507;28;20179;-83
2022/07/10 06:48:10;;;;;;;9.35;1.10;;;15.80;99.90;;;;;;5029640;28;20037;-80
2022/07/10 06:50:36;;;;;;;3.28;0.47;;;15.80;99.90;;;;;;5025534;28;20112;-81
2022/07/10 06:53:02;;;;;;;5.10;0.80;;;15.80;99.90;;;;;;5027450;28;20042;-81
2022/07/10 06:55:28;;;;;;;5.97;0.88;;;15.90;99.90;;;;;;5030501;28;20076;-79
2022/07/10 06:57:54;;;;;;;6.90;0.98;;;15.80;99.90;;;;;;5026428;28;20076;-82
2022/07/10 07:00:21;;;;;;;7.15;0.90;;;15.90;99.90;;;;;;5027123;28;20122;-80
2022/07/10 07:02:46;;;;;;;5.88;1.20;;;15.90;99.90;;;;;;5028245;28;20050;-81
2022/07/10 07:05:12;;;;;;;6.35;1.08;;;15.90;99.90;;;;;;5013093;28;20045;-81
2022/07/10 07:07:38;;;;;;;5.50;0.90;;;15.90;99.90;;;;;;5028458;28;20045;-81
2022/07/10 07:10:05;;;;;;;7.05;0.85;;;15.90;99.90;;;;;;5025989;28;20102;-83
2022/07/10 07:12:31;;;;;;;5.28;0.90;;;15.90;99.90;;;;;;5026082;28;20159;-84
2022/07/10 07:14:57;;;;;;;8.15;0.98;;;15.90;99.90;;;;;;5008208;28;20044;-83
2022/07/10 07:17:33;;;;;;;4.13;1.13;;;15.80;99.90;;;;;;5023667;28;20037;-85
2022/07/10 07:25:32;;;;;;;4.85;0.52;;;15.70;99.90;;;;;;5024277;28;20436;-85
2022/07/10 07:27:59;;;;;;;2.65;0.50;;;15.70;99.90;;;;;;5023653;28;20183;-85
2022/07/10 07:30:25;;;;;;;2.42;0.95;;;15.70;99.90;;;;;;5005711;28;20038;-86
2022/07/10 07:32:51;;;;;;;3.80;0.55;;;15.70;99.90;;;;;;5023356;28;20048;-84
2022/07/10 07:35:17;;;;;;;2.03;0.38;;;15.80;99.90;;;;;;5024140;28;20042;-85
2022/07/10 07:38:30;;;;;;;2.50;0.50;;;15.90;99.90;;;;;;5023483;28;20041;-84
2022/07/10 07:41:00;;;;;;;;;;;16.00;99.90;;;;;;5024258;28;20045;-84
2022/07/10 07:43:39;;;;;;;3.95;0.93;;;16.10;99.90;;;;;;5023117;28;19925;-85
2022/07/10 07:46:04;;;;;;;2.25;0.77;;;16.10;99.90;;;;;;5007145;28;20060;-84
2022/07/10 07:48:30;;;;;;;2.97;0.55;;;16.30;99.90;;;;;;5025039;28;20045;-85
2022/07/10 07:50:55;;;;;;;6.18;0.90;;;16.40;99.90;;;;;;5019581;28;20029;-84
2022/07/10 07:53:23;;;;;;;6.32;1.17;;;16.50;99.90;;;;;;5022357;28;20052;-84
2022/07/10 07:55:49;;;;;;;4.25;0.55;;;16.60;99.90;;;;;;5023091;28;20091;-82
2022/07/10 07:58:14;;;;;;;3.90;0.35;;;16.70;99.90;;;;;;5025579;28;20580;-84
2022/07/10 08:00:40;;;;;;;4.53;0.60;;;16.90;99.90;;;;;;5025542;28;20048;-84
2022/07/10 08:03:06;;;;;;;4.03;0.80;;;16.90;99.90;;;;;;5030570;28;20064;-84
2022/07/10 08:05:31;;;;;;;1.15;0.22;;;17.00;99.90;;;;;;5028800;28;20056;-83
2022/07/10 08:08:10;;;;;;;2.50;0.90;;;17.00;99.90;;;;;;5024188;28;20090;-84
2022/07/10 08:10:38;;;;;;;3.88;0.57;;;16.90;99.90;;;;;;5023013;28;20061;-83
2022/07/10 08:13:36;;;;;;;5.82;1.30;;;17.10;99.90;;;;;;5027802;28;20046;-85
2022/07/10 08:16:21;;;;;;;3.30;0.40;;;16.90;99.90;;;;;;5033176;28;20047;-84
2022/07/10 08:18:47;;;;;;;2.80;0.40;;;16.80;99.90;;;;;;5011657;28;20046;-82
2022/07/10 08:21:13;;;;;;;2.53;0.57;;;16.70;99.90;;;;;;5011063;28;20265;-82
2022/07/10 08:23:39;;;;;;;3.10;0.45;;;16.60;99.90;;;;;;5028408;28;20504;-82
2022/07/10 08:26:04;;;;;;;4.05;0.40;;;16.40;99.90;;;;;;5027689;28;20041;-82
2022/07/10 08:28:30;;;;;;;3.72;0.40;;;16.40;99.90;;;;;;5029092;28;20056;-81
2022/07/10 08:30:56;;;;;;;4.35;0.50;;;16.20;99.90;;;;;;5024672;28;20048;-83
2022/07/10 08:33:21;;;;;;;1.52;0.25;;;16.20;99.90;;;;;;5026536;28;20540;-82
2022/07/10 08:35:47;;;;;;;3.88;0.50;;;16.20;99.90;;;;;;5025976;28;20396;-83
2022/07/10 08:38:13;;;;;;;4.80;0.63;;;16.10;99.90;;;;;;5010675;28;20143;-82
2022/07/10 08:40:39;;;;;;;4.70;0.77;;;16.00;99.90;;;;;;5028112;28;20040;-83
2022/07/10 08:43:05;;;;;;;5.65;0.88;;;16.10;99.90;;;;;;5028431;28;20049;-82
2022/07/10 08:45:35;;;;;;;4.57;0.60;;;16.00;99.90;;;;;;5023364;28;20045;-83
2022/07/10 08:48:06;;;;;;;4.93;0.50;;;15.90;99.90;;;;;;5031683;28;20033;-81
2022/07/10 08:50:33;;;;;;;1.75;0.40;;;15.90;99.90;;;;;;5025648;28;20041;-81
2022/07/10 08:53:01;;;;;;;2.95;0.50;;;15.90;99.90;;;;;;5031757;28;20041;-82
2022/07/10 08:55:27;;;;;;;3.33;0.70;;;16.00;99.90;;;;;;5046393;28;20037;-81
2022/07/10 08:57:55;;;;;;;0.93;0.30;;;16.10;99.90;;;;;;5032100;28;20053;-84
2022/07/10 09:00:22;;;;;;;1.75;0.30;;;16.20;99.90;;;;;;5027279;28;20048;-81
2022/07/10 09:02:47;;;;;;;3.28;0.82;;;16.30;99.90;;;;;;5025242;28;20096;-82
2022/07/10 09:05:14;;;;;;;2.40;0.88;;;16.40;99.90;;;;;;5028532;28;20041;-81
2022/07/10 09:07:41;;;;;;;3.80;0.65;;;16.50;99.90;;;;;;5026361;28;20373;-82
2022/07/10 09:10:09;;;;;;;2.65;0.93;;;16.60;99.90;;;;;;5027381;28;20085;-82
2022/07/10 09:12:58;;;;;;;2.85;0.60;;;16.80;99.90;;;;;;5025427;28;20061;-82
2022/07/10 09:15:26;;;;;;;3.25;0.50;;;16.90;99.90;;;;;;5029101;28;20045;-81
2022/07/10 09:18:00;;;;;;;4.60;0.77;;;17.00;99.90;;;;;;5030146;28;20113;-82
2022/07/10 09:20:33;;;;;;;3.88;0.60;;;17.20;99.90;;;;;;5025064;28;20116;-82
2022/07/10 09:23:14;;;;;;;3.47;0.60;;;17.30;99.90;;;;;;5029194;28;20046;-81
2022/07/10 09:25:40;;;;;;;5.63;0.80;;;17.40;99.90;;;;;;5027069;28;20152;-81
2022/07/10 09:28:05;;;;;;;4.45;0.70;;;17.40;99.90;;;;;;5025741;28;20049;-81
2022/07/10 09:30:33;;;;;;;6.72;0.73;;;17.50;99.90;;;;;;5023666;28;20041;-83
2022/07/10 09:33:25;;;;;;;4.07;0.82;;;17.40;99.90;;;;;;5020661;28;20096;-83
2022/07/10 09:36:14;;;;;;;7.25;0.88;;;17.40;99.90;;;;;;5024357;28;20065;-85
2022/07/10 09:38:43;;;;;;;2.83;0.47;;;17.60;99.90;;;;;;5022704;28;20475;-82
2022/07/10 09:41:13;;;;;;;3.00;1.05;;;17.40;99.90;;;;;;5007624;28;20040;-82
2022/07/10 09:43:55;;;;;;;4.60;0.60;;;17.40;99.90;;;;;;5024896;28;20467;-82
2022/07/10 09:46:26;;;;;;;4.53;0.90;;;17.40;99.90;;;;;;5020839;28;20042;-82
2022/07/10 09:49:01;;;;;;;4.90;0.70;;;17.50;99.90;;;;;;5024780;28;20091;-83
2022/07/10 09:51:29;;;;;;;;;;;17.50;99.90;;;;;;5024136;28;20504;-82
2022/07/10 09:53:56;;;;;;;2.55;0.50;;;17.60;99.90;;;;;;5025103;28;19956;-82
2022/07/10 09:56:23;;;;;;;3.78;0.70;;;17.80;99.90;;;;;;5024634;28;20074;-83
2022/07/10 09:58:52;;;;;;;1.30;0.40;;;17.80;99.90;;;;;;5025880;28;20037;-82
2022/07/10 10:01:19;;;;;;;4.65;0.80;;;17.60;99.90;;;;;;5005573;28;20030;-83
2022/07/10 10:03:47;;;;;;;2.97;0.40;;;17.90;99.90;;;;;;5008781;28;20149;-84
2022/07/10 10:06:16;;;;;;;4.32;1.20;;;17.30;99.90;;;;;;5022906;28;20052;-83
2022/07/10 10:08:51;;;;;;;4.90;0.80;;;17.30;99.90;;;;;;5025708;28;20863;-82
2022/07/10 10:11:21;;;;;;;5.72;1.02;;;17.30;99.90;;;;;;5009053;28;20041;-82
2022/07/10 10:13:48;;;;;;;5.13;0.80;;;17.40;99.90;;;;;;5009237;28;20041;-83
2022/07/10 10:16:14;;;;;;;4.53;0.73;;;17.60;99.90;;;;;;5023781;28;20045;-82
2022/07/10 10:21:29;;;;;;;4.70;0.90;;;17.70;99.90;;;;;;5024713;28;20056;-83
2022/07/10 10:23:56;;;;;;;2.75;0.45;;;17.80;99.90;;;;;;5025171;28;20057;-82
2022/07/10 10:26:23;;;;;;;4.63;1.45;;;17.90;99.90;;;;;;5025744;28;20083;-83
2022/07/10 10:28:54;;;;;;;2.58;0.60;;;17.90;99.90;;;;;;5023467;28;20099;-83
2022/07/10 10:31:21;;;;;;;3.35;0.68;;;17.90;99.90;;;;;;5003642;28;20055;-83
2022/07/10 10:33:48;;;;;;;4.18;1.05;;;18.40;99.90;;;;;;5024153;28;20073;-82
2022/07/10 10:36:34;;;;;;;4.18;1.00;;;18.20;99.90;;;;;;5022579;28;20036;-82
2022/07/10 10:39:02;;;;;;;4.45;0.73;;;18.10;99.90;;;;;;5021193;28;20053;-82
2022/07/10 10:41:42;;;;;;;7.80;1.48;;;18.20;99.90;;;;;;5024321;28;20477;-82
2022/07/10 10:44:16;;;;;;;5.72;0.77;;;18.30;99.90;;;;;;5022722;28;20045;-82
2022/07/10 10:46:54;;;;;;;6.20;1.38;;;18.50;99.90;;;;;;5007676;28;20041;-81
2022/07/10 10:49:22;;;;;;;2.63;0.80;;;18.70;99.90;;;;;;5005822;28;20076;-83
2022/07/10 10:52:02;;;;;;;4.55;0.70;;;18.90;99.90;;;;;;5022574;28;20048;-83
2022/07/10 10:54:30;;;;;;;3.90;0.90;;;19.10;99.90;;;;;;5008450;28;20079;-83
2022/07/10 10:57:16;;;;;;;3.95;0.77;;;19.20;99.90;;;;;;5023191;28;20149;-83
2022/07/10 10:59:55;;;;;;;5.40;0.70;;;19.40;99.90;;;;;;5023070;28;20056;-82
2022/07/10 11:02:37;;;;;;;6.07;1.13;;;19.50;99.90;;;;;;5023583;28;20045;-81
2022/07/10 11:05:17;;;;;;;5.15;1.10;;;19.70;99.90;;;;;;5006747;28;20081;-84
2022/07/10 11:08:03;;;;;;;4.63;1.63;;;19.70;99.90;;;;;;5023475;28;20128;-82
2022/07/10 11:10:42;;;;;;;4.93;1.10;;;19.70;99.90;;;;;;5005385;28;20069;-83
2022/07/10 11:13:15;;;;;;;5.53;0.93;;;19.60;99.90;;;;;;5024693;28;20061;-81
2022/07/10 11:15:51;;;;;;;2.05;0.50;;;19.40;99.90;;;;;;5023874;28;20364;-83
2022/07/10 11:18:18;;;;;;;;;;;19.30;99.90;;;;;;5008496;28;20041;-83
2022/07/10 11:20:49;;;;;;;2.70;0.57;;;19.10;99.90;;;;;;5022265;28;19932;-83
2022/07/10 11:23:44;;;;;;;4.82;1.02;;;19.50;99.90;;;;;;5026134;28;20123;-83
2022/07/10 11:26:16;;;;;;;3.88;0.57;;;19.40;99.90;;;;;;5023713;28;20183;-83
2022/07/10 11:28:55;;;;;;;4.47;0.90;;;19.60;99.90;;;;;;5022440;28;20045;-83
2022/07/10 11:31:22;;;;;;;5.80;1.00;;;19.60;99.90;;;;;;5019695;28;20041;-83
2022/07/10 11:33:51;;;;;;;4.60;0.70;;;19.60;99.90;;;;;;5025264;28;20128;-83
2022/07/10 11:36:32;;;;;;;2.97;0.70;;;19.70;99.90;;;;;;5009124;28;20041;-82
2022/07/10 11:39:07;;;;;;;3.45;1.02;;;19.50;99.90;;;;;;5023132;28;20038;-84
2022/07/10 11:41:34;;;;;;;4.07;0.95;;;19.80;99.90;;;;;;5006715;28;20079;-83
2022/07/10 11:44:01;;;;;;;4.28;0.90;;;19.30;99.90;;;;;;5027397;28;20167;-83
2022/07/10 11:46:28;;;;;;;4.07;0.93;;;18.90;99.90;;;;;;5012529;28;20045;-82
2022/07/10 11:48:56;;;;;;;6.35;0.60;;;19.10;99.90;;;;;;5027924;28;20192;-83
2022/07/10 11:51:33;;;;;;;2.83;0.43;;;18.80;99.90;;;;;;5027015;28;20128;-83
2022/07/10 11:54:00;;;;;;;3.30;0.88;;;18.80;99.90;;;;;;5023595;28;20041;-82
2022/07/10 11:56:27;;;;;;;4.03;1.00;;;18.70;99.90;;;;;;5009965;28;20033;-83
2022/07/10 11:58:58;;;;;;;4.10;0.90;;;18.60;99.90;;;;;;5009980;28;20053;-82
2022/07/10 12:01:23;;;;;;;4.35;0.68;;;18.50;99.90;;;;;;5027384;28;20037;-82
2022/07/10 12:04:03;;;;;;;3.97;0.82;;;18.40;99.90;;;;;;5009211;28;20044;-83
2022/07/10 12:06:31;;;;;;;5.00;0.80;;;18.30;99.90;;;;;;5043705;28;20053;-82
2022/07/10 12:09:03;;;;;;;7.60;1.05;;;18.20;99.90;;;;;;5027998;28;20045;-82
2022/07/10 12:11:28;;;;;;;3.53;0.70;;;18.10;99.90;;;;;;5010539;28;20447;-82
2022/07/10 12:14:14;;;;;;;4.88;0.93;;;17.90;99.90;;;;;;5028281;28;20052;-83
2022/07/10 12:16:44;;;;;;;4.43;1.48;;;17.90;99.90;;;;;;5025643;28;20045;-83
2022/07/10 12:19:12;;;;;;;6.97;0.80;;;17.90;99.90;;;;;;5003896;28;20545;-84
2022/07/10 12:21:40;;;;;;;4.30;0.60;;;17.90;99.90;;;;;;5028442;28;20033;-83
2022/07/10 12:24:06;;;;;;;5.13;0.90;;;17.90;99.90;;;;;;5008392;28;20052;-83
2022/07/10 12:26:37;;;;;;;2.10;0.75;;;18.10;99.90;;;;;;5040896;28;20072;-83
2022/07/10 12:29:04;;;;;;;3.30;0.95;;;17.90;99.90;;;;;;5027434;28;20133;-81
2022/07/10 12:31:32;;;;;;;2.75;1.15;;;17.90;99.90;;;;;;5026347;28;20114;-83
2022/07/10 12:34:06;;;;;;;4.80;0.90;;;17.90;99.90;;;;;;5024991;28;20041;-82
2022/07/10 12:36:47;;;;;;;3.78;0.60;;;18.00;99.90;;;;;;5029515;28;20041;-83
2022/07/10 12:39:15;;;;;;;7.60;1.40;;;18.00;99.90;;;;;;5026064;28;20045;-83
2022/07/10 12:42:01;;;;;;;6.63;0.80;;;18.00;99.90;;;;;;5027571;28;20048;-83
2022/07/10 12:44:29;;;;;;;;;;;18.10;99.90;;;;;;5040978;28;20061;-82
2022/07/10 12:47:22;;;;;;;4.93;0.80;;;18.20;99.90;;;;;;5026395;28;20728;-82
2022/07/10 12:50:02;;;;;;;4.15;0.77;;;18.20;99.90;;;;;;5022962;28;20490;-83
2022/07/10 12:52:32;;;;;;;6.85;0.95;;;18.30;99.90;;;;;;5026577;28;20045;-83
2022/07/10 12:55:16;;;;;;;5.13;0.95;;;18.30;99.90;;;;;;5025506;28;20044;-84
2022/07/10 12:58:05;;;;;;;4.82;0.73;;;18.40;99.90;;;;;;5010829;28;20040;-83
2022/07/10 13:00:42;;;;;;;5.25;0.65;;;18.50;99.90;;;;;;5039967;28;20037;-81
2022/07/10 13:03:10;;;;;;;2.17;0.55;;;18.70;99.90;;;;;;5008906;28;20052;-83
2022/07/10 13:05:41;;;;;;;4.40;0.70;;;18.90;99.90;;;;;;5009806;28;20049;-82
2022/07/10 13:08:07;;;;;;;3.65;0.57;;;19.10;99.90;;;;;;5023485;28;20066;-83